createdAt,value
2018-06-04T00:00:31.096Z,6.45
2018-06-04T00:03:07.092Z,6.47
2018-06-04T00:05:42.795Z,5.72
2018-06-04T00:08:18.475Z,5.60
2018-06-04T00:10:54.324Z,5.78
2018-06-04T00:13:30.071Z,5.90
2018-06-04T00:16:06.079Z,5.83
2018-06-04T00:18:42.563Z,6.03
2018-06-04T00:21:18.085Z,5.55
2018-06-04T00:23:54.078Z,5.40
2018-06-04T00:26:29.759Z,5.87
2018-06-04T00:29:05.558Z,5.72
2018-06-04T00:31:41.085Z,6.05
2018-06-04T00:34:17.096Z,7.08
2018-06-04T00:36:53.093Z,6.20
2018-06-04T00:39:29.990Z,5.72
2018-06-04T00:44:37.502Z,6.70
2018-06-04T00:47:13.305Z,6.60
2018-06-04T00:49:49.299Z,6.08
2018-06-04T00:52:25.700Z,6.60
2018-06-04T00:55:01.778Z,5.75
2018-06-04T00:57:37.984Z,6.97
2018-06-04T01:00:15.038Z,6.55
2018-06-04T01:02:52.104Z,6.95
2018-06-04T01:05:29.119Z,7.20
2018-06-04T01:08:05.090Z,6.20
2018-06-04T01:11:34.002Z,6.35
2018-06-04T01:14:10.062Z,7.00
2018-06-04T01:16:45.878Z,5.92
2018-06-04T01:19:21.507Z,6.00
2018-06-04T01:21:58.361Z,6.20
2018-06-04T01:24:34.091Z,7.40
2018-06-04T01:27:09.993Z,8.78
2018-06-04T01:29:46.663Z,6.37
2018-06-04T01:32:22.988Z,7.10
2018-06-04T01:34:59.084Z,6.12
2018-06-04T01:37:34.970Z,5.90
2018-06-04T01:40:11.094Z,5.35
2018-06-04T01:42:46.962Z,5.35
2018-06-04T01:45:22.822Z,6.23
2018-06-04T01:47:58.397Z,5.77
2018-06-04T01:50:34.110Z,5.83
2018-06-04T01:53:10.101Z,5.47
2018-06-04T01:55:46.059Z,6.40
2018-06-04T01:58:22.983Z,6.15
2018-06-04T02:00:58.936Z,5.77
2018-06-04T02:03:35.103Z,5.28
2018-06-04T02:06:11.084Z,5.90
2018-06-04T02:08:46.780Z,5.85
2018-06-04T02:11:23.305Z,5.50
2018-06-04T02:13:59.432Z,6.10
2018-06-04T02:16:35.010Z,6.03
2018-06-04T02:19:11.066Z,5.50
2018-06-04T02:21:47.061Z,6.70
2018-06-04T02:24:23.052Z,5.72
2018-06-04T02:26:59.095Z,4.97
2018-06-04T02:29:34.982Z,4.97
2018-06-04T02:32:11.094Z,6.08
2018-06-04T02:34:47.080Z,5.62
2018-06-04T02:37:23.091Z,5.53
2018-06-04T02:40:00.347Z,5.57
2018-06-04T02:42:36.241Z,5.50
2018-06-04T02:45:12.133Z,4.80
2018-06-04T02:47:47.540Z,5.53
2018-06-04T02:50:23.344Z,5.50
2018-06-04T02:52:59.239Z,5.60
2018-06-04T02:55:35.334Z,6.12
2018-06-04T02:58:12.274Z,6.17
2018-06-04T03:00:48.238Z,5.65
2018-06-04T03:03:24.263Z,5.87
2018-06-04T03:05:59.983Z,6.13
2018-06-04T03:08:38.505Z,5.47
2018-06-04T03:11:14.089Z,5.60
2018-06-04T03:13:49.644Z,5.80
2018-06-04T03:16:25.423Z,5.93
2018-06-04T03:19:01.061Z,5.43
2018-06-04T03:21:36.528Z,5.17
2018-06-04T03:24:12.115Z,5.37
2018-06-04T03:26:48.089Z,5.47
2018-06-04T03:29:23.750Z,6.27
2018-06-04T03:31:59.215Z,4.73
2018-06-04T03:34:34.793Z,5.57
2018-06-04T03:37:10.311Z,6.00
2018-06-04T03:39:45.998Z,6.58
2018-06-04T03:42:21.496Z,6.22
2018-06-04T03:44:58.098Z,5.92
2018-06-04T03:47:33.734Z,6.57
2018-06-04T03:50:09.287Z,6.17
2018-06-04T03:52:45.094Z,6.30
2018-06-04T03:55:20.542Z,6.30
2018-06-04T03:57:56.085Z,5.07
2018-06-04T04:00:31.560Z,6.10
2018-06-04T04:05:40.781Z,5.83
2018-06-04T04:08:16.356Z,6.23
2018-06-04T04:10:52.101Z,5.90
2018-06-04T04:13:27.847Z,5.97
2018-06-04T04:16:03.402Z,5.67
2018-06-04T04:18:39.216Z,5.03
2018-06-04T04:21:14.922Z,5.67
2018-06-04T04:23:50.313Z,6.17
2018-06-04T04:26:26.799Z,6.30
2018-06-04T04:29:02.336Z,6.27
2018-06-04T04:31:38.030Z,5.87
2018-06-04T04:34:13.564Z,6.30
2018-06-04T04:36:49.099Z,6.40
2018-06-04T04:39:24.426Z,5.53
2018-06-04T04:42:00.090Z,5.70
2018-06-04T04:44:35.765Z,6.33
2018-06-04T04:47:11.322Z,6.47
2018-06-04T04:52:20.526Z,7.50
2018-06-04T04:54:56.095Z,5.90
2018-06-04T04:57:31.507Z,6.07
2018-06-04T05:00:07.075Z,6.00
2018-06-04T05:02:42.753Z,6.40
2018-06-04T05:05:19.023Z,7.10
2018-06-04T05:07:54.659Z,5.73
2018-06-04T05:10:30.095Z,5.47
2018-06-04T05:13:05.745Z,5.73
2018-06-04T05:15:41.292Z,5.40
2018-06-04T05:18:17.076Z,5.80
2018-06-04T05:20:52.529Z,5.50
2018-06-04T05:23:29.123Z,5.70
2018-06-04T05:26:04.658Z,5.40
2018-06-04T05:31:39.274Z,6.00
2018-06-04T05:34:15.006Z,5.85
2018-06-04T05:36:51.098Z,6.47
2018-06-04T05:39:27.092Z,6.33
2018-06-04T05:42:03.103Z,6.45
2018-06-04T05:44:39.933Z,6.13
2018-06-04T05:47:17.090Z,5.72
2018-06-04T05:49:52.866Z,6.03
2018-06-04T05:52:29.810Z,6.22
2018-06-04T05:55:06.772Z,6.12
2018-06-04T05:57:42.295Z,6.17
2018-06-04T06:00:17.816Z,6.50
2018-06-04T06:02:53.405Z,5.62
2018-06-04T06:05:29.108Z,6.37
2018-06-04T06:08:05.070Z,5.80
2018-06-04T06:10:41.770Z,6.30
2018-06-04T06:13:17.444Z,5.75
2018-06-04T06:15:53.105Z,6.67
2018-06-04T06:18:28.931Z,6.35
2018-06-04T06:21:05.989Z,6.87
2018-06-04T06:23:41.841Z,6.20
2018-06-04T06:26:17.513Z,6.65
2018-06-04T06:28:53.118Z,6.33
2018-06-04T06:31:28.849Z,6.12
2018-06-04T06:34:05.091Z,5.50
2018-06-04T06:36:42.091Z,6.63
2018-06-04T06:39:18.098Z,6.17
2018-06-04T06:41:53.862Z,6.47
2018-06-04T06:44:29.564Z,7.23
2018-06-04T06:47:05.110Z,6.62
2018-06-04T06:49:40.858Z,6.87
2018-06-04T06:52:16.769Z,6.15
2018-06-04T06:54:52.410Z,5.58
2018-06-04T06:57:28.104Z,5.78
2018-06-04T07:00:04.770Z,6.00
2018-06-04T07:02:41.286Z,7.33
2018-06-04T07:05:17.987Z,5.80
2018-06-04T07:07:54.334Z,5.97
2018-06-04T07:10:32.124Z,6.20
2018-06-04T07:13:09.892Z,6.10
2018-06-04T07:15:48.938Z,6.00
2018-06-04T07:18:27.294Z,6.70
2018-06-04T07:21:04.526Z,5.80
2018-06-04T07:23:41.323Z,6.40
2018-06-04T07:28:53.725Z,5.72
2018-06-04T07:31:30.322Z,6.10
2018-06-04T07:36:43.237Z,5.93
2018-06-04T07:39:21.341Z,5.65
2018-06-04T07:41:58.348Z,5.50
2018-06-04T07:44:36.061Z,6.28
2018-06-04T07:47:13.340Z,6.67
2018-06-04T07:49:51.122Z,6.80
2018-06-04T07:52:28.929Z,6.37
2018-06-04T07:57:42.346Z,5.92
2018-06-04T08:00:20.565Z,6.20
2018-06-04T08:02:57.832Z,5.43
2018-06-04T08:05:35.844Z,6.87
2018-06-04T08:08:13.296Z,5.47
2018-06-04T08:10:50.265Z,6.37
2018-06-04T08:13:27.342Z,6.47
2018-06-04T08:16:04.550Z,5.57
2018-06-04T08:18:41.086Z,8.40
2018-06-04T08:21:20.049Z,5.90
2018-06-04T08:23:56.878Z,6.57
2018-06-04T08:26:33.426Z,6.42
2018-06-04T08:29:09.989Z,6.30
2018-06-04T08:31:47.051Z,6.03
2018-06-04T08:34:24.103Z,5.73
2018-06-04T08:37:00.714Z,5.93
2018-06-04T08:39:37.894Z,6.07
2018-06-04T08:42:15.053Z,5.80
2018-06-04T08:44:52.281Z,6.27
2018-06-04T08:47:29.226Z,6.83
2018-06-04T08:50:06.065Z,6.37
2018-06-04T08:52:43.530Z,5.53
2018-06-04T08:55:20.085Z,6.33
2018-06-04T08:57:57.089Z,6.13
2018-06-04T09:00:34.090Z,5.67
2018-06-04T09:03:10.503Z,6.10
2018-06-04T09:05:47.844Z,6.17
2018-06-04T09:08:24.886Z,6.50
2018-06-04T09:11:01.117Z,6.30
2018-06-04T09:13:38.992Z,6.47
2018-06-04T09:16:15.354Z,6.05
2018-06-04T09:18:52.273Z,6.20
2018-06-04T09:21:29.811Z,6.27
2018-06-04T09:24:08.679Z,6.03
2018-06-04T09:26:45.770Z,5.53
2018-06-04T09:29:22.494Z,6.43
2018-06-04T09:31:59.305Z,6.50
2018-06-04T09:37:11.474Z,6.70
2018-06-04T09:39:48.267Z,5.93
2018-06-04T09:42:24.739Z,5.90
2018-06-04T09:45:02.070Z,5.93
2018-06-04T09:47:39.521Z,6.27
2018-06-04T09:50:17.074Z,6.07
2018-06-04T09:52:53.653Z,6.27
2018-06-04T09:55:30.474Z,5.77
2018-06-04T09:58:07.443Z,5.43
2018-06-04T10:00:44.320Z,6.20
2018-06-04T10:03:21.092Z,7.00
2018-06-04T10:05:58.318Z,6.23
2018-06-04T10:08:34.613Z,5.90
2018-06-04T10:11:11.516Z,5.93
2018-06-04T10:13:48.293Z,6.13
2018-06-04T10:16:26.282Z,5.70
2018-06-04T10:19:03.316Z,6.10
2018-06-04T10:21:40.461Z,6.20
2018-06-04T10:24:17.282Z,6.65
2018-06-04T10:26:54.099Z,6.10
2018-06-04T10:29:30.437Z,5.57
2018-06-04T10:32:07.865Z,6.03
2018-06-04T10:34:44.326Z,6.73
2018-06-04T10:39:56.277Z,6.43
2018-06-04T10:45:08.095Z,6.80
2018-06-04T10:47:45.292Z,6.67
2018-06-04T10:50:22.482Z,6.40
2018-06-04T10:52:59.391Z,6.10
2018-06-04T10:55:36.104Z,7.13
2018-06-04T10:58:13.091Z,6.60
2018-06-04T11:00:50.493Z,6.70
2018-06-04T11:03:31.784Z,5.97
2018-06-04T11:06:08.755Z,6.63
2018-06-04T11:08:45.145Z,6.57
2018-06-04T11:11:23.064Z,6.50
2018-06-04T11:14:00.490Z,7.50
2018-06-04T11:16:37.532Z,6.97
2018-06-04T11:19:14.086Z,6.53
2018-06-04T11:21:51.768Z,7.07
2018-06-04T11:24:29.091Z,7.07
2018-06-04T11:27:05.518Z,5.83
2018-06-04T11:29:42.845Z,6.50
2018-06-04T11:32:20.742Z,6.43
2018-06-04T11:34:58.275Z,6.07
2018-06-04T11:37:35.822Z,5.77
2018-06-04T11:40:12.286Z,5.83
2018-06-04T11:42:49.521Z,6.07
2018-06-04T11:45:26.763Z,5.67
2018-06-04T11:48:03.978Z,6.50
2018-06-04T11:50:41.097Z,7.03
2018-06-04T11:53:17.274Z,7.27
2018-06-04T11:55:54.109Z,6.60
2018-06-04T11:58:32.095Z,6.83
2018-06-04T12:01:09.278Z,6.97
2018-06-04T12:06:21.082Z,6.50
2018-06-04T12:08:57.933Z,6.00
2018-06-04T12:11:34.503Z,7.03
2018-06-04T12:14:12.244Z,6.83
2018-06-04T12:16:49.088Z,6.63
2018-06-04T12:19:25.299Z,5.90
2018-06-04T12:22:02.310Z,6.90
2018-06-04T12:24:39.389Z,6.77
2018-06-04T12:29:52.469Z,6.63
2018-06-04T12:32:29.110Z,6.13
2018-06-04T12:35:06.271Z,6.07
2018-06-04T12:40:18.269Z,6.03
2018-06-04T12:42:56.073Z,6.10
2018-06-04T12:45:32.534Z,6.43
2018-06-04T12:48:09.592Z,5.60
2018-06-04T12:50:47.094Z,5.97
2018-06-04T12:53:24.823Z,6.10
2018-06-04T12:56:02.091Z,6.60
2018-06-04T12:58:38.844Z,6.27
2018-06-04T13:01:15.801Z,6.40
2018-06-04T13:03:53.103Z,6.10
2018-06-04T13:06:30.508Z,5.97
2018-06-04T13:09:07.850Z,6.30
2018-06-04T13:11:44.574Z,6.00
2018-06-04T13:14:21.578Z,6.60
2018-06-04T13:16:58.354Z,6.50
2018-06-04T13:22:11.074Z,6.97
2018-06-04T13:24:48.208Z,7.10
2018-06-04T13:27:25.257Z,6.73
2018-06-04T13:30:02.094Z,6.30
2018-06-04T13:32:38.777Z,7.25
2018-06-04T13:35:15.775Z,8.10
2018-06-04T13:37:52.471Z,6.47
2018-06-04T13:43:05.087Z,6.53
2018-06-04T13:45:46.831Z,6.57
2018-06-04T13:48:24.285Z,7.97
2018-06-04T13:51:01.843Z,7.33
2018-06-04T13:53:39.285Z,6.73
2018-06-04T13:56:17.792Z,6.95
2018-06-04T13:58:54.270Z,7.07
2018-06-04T14:01:31.437Z,8.47
2018-06-04T14:04:08.072Z,6.60
2018-06-04T14:06:46.107Z,6.80
2018-06-04T14:09:23.080Z,9.00
2018-06-04T14:11:59.877Z,9.80
2018-06-04T14:14:36.278Z,7.00
2018-06-04T14:17:13.293Z,7.20
2018-06-04T14:19:50.072Z,6.10
2018-06-04T14:22:27.088Z,8.33
2018-06-04T14:25:05.398Z,7.87
2018-06-04T14:30:17.085Z,7.87
2018-06-04T14:32:54.649Z,8.55
2018-06-04T14:35:31.088Z,7.50
2018-06-04T14:38:08.089Z,8.00
2018-06-04T14:40:45.009Z,6.73
2018-06-04T14:43:21.756Z,7.93
2018-06-04T14:45:58.456Z,7.27
2018-06-04T14:48:34.982Z,7.10
2018-06-04T14:51:11.794Z,9.27
2018-06-04T14:53:48.535Z,8.27
2018-06-04T14:56:25.075Z,8.05
2018-06-04T14:59:03.092Z,8.88
2018-06-04T15:01:40.083Z,8.23
2018-06-04T15:04:16.808Z,8.23
2018-06-04T15:06:54.070Z,8.13
2018-06-04T15:09:31.081Z,7.97
2018-06-04T15:12:07.775Z,7.78
2018-06-04T15:14:45.069Z,8.37
2018-06-04T15:17:21.938Z,7.00
2018-06-04T15:19:59.107Z,7.40
2018-06-04T15:22:35.800Z,6.97
2018-06-04T15:25:13.088Z,6.53
2018-06-04T15:27:50.075Z,6.80
2018-06-04T15:30:26.297Z,6.37
2018-06-04T15:33:03.798Z,7.30
2018-06-04T15:35:40.093Z,6.90
2018-06-04T15:38:16.486Z,6.73
2018-06-04T15:40:54.112Z,7.55
2018-06-04T15:43:31.072Z,6.07
2018-06-04T15:48:54.406Z,6.57
2018-06-04T15:51:32.092Z,6.80
2018-06-04T15:54:11.215Z,6.90
2018-06-04T15:56:48.326Z,7.20
2018-06-04T15:59:26.104Z,6.63
2018-06-04T16:02:03.438Z,5.90
2018-06-04T16:07:17.090Z,6.58
2018-06-04T16:09:54.094Z,6.03
2018-06-04T16:12:31.079Z,6.80
2018-06-04T16:15:09.082Z,5.93
2018-06-04T16:17:46.087Z,5.93
2018-06-04T16:20:23.658Z,6.97
2018-06-04T16:25:35.267Z,5.87
2018-06-04T16:28:10.812Z,6.20
2018-06-04T16:30:46.303Z,5.50
2018-06-04T16:33:21.936Z,6.37
2018-06-04T16:35:57.669Z,6.00
2018-06-04T16:38:35.436Z,5.80
2018-06-04T16:41:11.872Z,5.20
2018-06-04T16:43:49.098Z,5.70
2018-06-04T16:46:25.850Z,5.37
2018-06-04T16:49:01.445Z,5.50
2018-06-04T16:54:13.840Z,5.43
2018-06-04T16:56:49.535Z,5.00
2018-06-04T16:59:27.403Z,5.50
2018-06-04T17:02:04.999Z,6.10
2018-06-04T17:04:40.744Z,5.20
2018-06-04T17:07:16.211Z,5.87
2018-06-04T17:09:53.465Z,5.50
2018-06-04T17:12:29.069Z,5.72
2018-06-04T17:15:04.594Z,5.50
2018-06-04T17:17:40.099Z,5.17
2018-06-04T17:20:15.666Z,5.47
2018-06-04T17:22:51.328Z,5.73
2018-06-04T17:25:27.122Z,6.05
2018-06-04T17:28:02.750Z,5.40
2018-06-04T17:30:38.334Z,6.03
2018-06-04T17:36:40.849Z,5.97
2018-06-04T17:39:16.517Z,5.30
2018-06-04T17:41:52.066Z,5.60
2018-06-04T17:44:27.769Z,5.45
2018-06-04T17:47:04.852Z,5.70
2018-06-04T17:49:41.137Z,5.33
2018-06-04T17:52:17.262Z,5.70
2018-06-04T17:56:42.425Z,5.66
2018-06-04T17:59:18.096Z,5.37
2018-06-04T18:01:53.909Z,5.25
2018-06-04T18:04:29.474Z,5.03
2018-06-04T18:07:05.505Z,4.92
2018-06-04T18:09:41.097Z,5.70
2018-06-04T18:12:17.819Z,5.47
2018-06-04T18:14:53.444Z,5.20
2018-06-04T18:17:29.097Z,6.07
2018-06-04T18:20:04.936Z,5.10
2018-06-04T18:22:40.902Z,5.33
2018-06-04T18:25:16.756Z,4.83
2018-06-04T18:27:52.427Z,4.60
2018-06-04T18:33:02.497Z,4.75
2018-06-04T18:35:38.098Z,5.20
2018-06-04T18:38:14.967Z,5.03
2018-06-04T18:40:51.131Z,4.97
2018-06-04T18:43:27.116Z,4.67
2018-06-04T18:46:03.286Z,4.58
2018-06-04T18:48:39.287Z,4.75
2018-06-04T18:51:15.451Z,4.70
2018-06-04T18:53:51.333Z,4.12
2018-06-04T18:56:27.880Z,4.70
2018-06-04T18:59:03.902Z,4.92
2018-06-04T19:01:40.092Z,4.37
2018-06-04T19:04:16.214Z,4.07
2018-06-04T19:06:52.218Z,4.05
2018-06-04T19:09:28.209Z,4.20
2018-06-04T19:12:04.289Z,4.53
2018-06-04T19:14:40.553Z,4.03
2018-06-04T19:17:17.211Z,4.90
2018-06-04T19:19:54.267Z,4.30
2018-06-04T19:22:30.430Z,4.45
2018-06-04T19:25:06.433Z,3.60
2018-06-04T19:27:44.274Z,4.30
2018-06-04T19:30:20.082Z,4.10
2018-06-04T19:32:56.291Z,3.67
2018-06-04T19:35:32.296Z,3.83
2018-06-04T19:40:42.706Z,3.30
2018-06-04T19:43:19.210Z,3.42
2018-06-04T19:45:55.329Z,3.70
2018-06-04T19:48:31.264Z,3.75
2018-06-04T19:51:07.384Z,3.40
2018-06-04T19:53:43.343Z,3.22
2018-06-04T19:56:19.563Z,3.42
2018-06-04T19:58:56.665Z,3.80
2018-06-04T20:01:32.644Z,3.33
2018-06-04T20:04:08.792Z,3.60
2018-06-04T20:06:45.100Z,3.33
2018-06-04T20:09:21.293Z,3.47
2018-06-04T20:11:57.846Z,3.20
2018-06-04T20:14:33.857Z,3.40
2018-06-04T20:17:10.131Z,3.13
2018-06-04T20:19:46.207Z,3.57
2018-06-04T20:22:22.093Z,3.20
2018-06-04T20:24:58.099Z,3.45
2018-06-04T20:27:34.118Z,3.10
2018-06-04T20:30:11.430Z,3.20
2018-06-04T20:32:47.447Z,2.98
2018-06-04T20:35:24.976Z,3.40
2018-06-04T20:38:00.854Z,3.27
2018-06-04T20:40:36.429Z,3.20
2018-06-04T20:43:12.456Z,2.90
2018-06-04T20:45:48.087Z,3.10
2018-06-04T20:48:23.905Z,2.93
2018-06-04T20:51:00.481Z,2.90
2018-06-04T20:53:36.437Z,2.80
2018-06-04T20:56:12.091Z,2.98
2018-06-04T20:58:47.951Z,2.90
2018-06-04T21:01:23.802Z,3.00
2018-06-04T21:04:00.294Z,2.87
2018-06-04T21:06:36.331Z,3.02
2018-06-04T21:09:13.421Z,2.65
2018-06-04T21:11:49.962Z,2.90
2018-06-04T21:14:26.104Z,2.60
2018-06-04T21:17:03.315Z,2.85
2018-06-04T21:19:39.434Z,2.72
2018-06-04T21:22:16.106Z,3.12
2018-06-04T21:24:53.291Z,3.22
2018-06-04T21:27:30.091Z,2.52
2018-06-04T21:30:10.261Z,3.23
2018-06-04T21:32:49.299Z,2.70
2018-06-04T21:35:28.834Z,3.30
2018-06-04T21:38:06.674Z,3.30
2018-06-04T21:40:44.517Z,2.77
2018-06-04T21:43:26.265Z,2.63
2018-06-04T21:46:01.575Z,3.10
2018-06-04T21:48:38.317Z,2.80
2018-06-04T21:51:14.069Z,3.30
2018-06-04T21:53:50.090Z,2.80
2018-06-04T21:56:25.836Z,3.07
2018-06-04T21:59:01.406Z,3.00
2018-06-04T22:01:37.066Z,2.98
2018-06-04T22:04:15.891Z,2.77
2018-06-04T22:06:51.412Z,2.80
2018-06-04T22:09:27.534Z,2.70
2018-06-04T22:12:04.178Z,2.70
2018-06-04T22:14:40.211Z,3.27
2018-06-04T22:17:17.081Z,2.92
2018-06-04T22:19:53.092Z,2.93
2018-06-04T22:22:30.087Z,2.90
2018-06-04T22:25:06.209Z,2.50
2018-06-04T22:27:42.108Z,2.70
2018-06-04T22:30:18.233Z,2.60
2018-06-04T22:32:54.272Z,3.10
2018-06-04T22:35:30.423Z,2.67
2018-06-04T22:38:11.449Z,3.37
2018-06-04T22:40:47.553Z,2.80
2018-06-04T22:43:23.112Z,3.10
2018-06-04T22:45:59.210Z,2.87
2018-06-04T22:48:35.303Z,2.50
2018-06-04T22:51:11.662Z,2.83
2018-06-04T22:53:47.954Z,3.10
2018-06-04T22:56:24.772Z,3.10
2018-06-04T22:59:00.826Z,2.80
2018-06-04T23:01:36.841Z,2.90
2018-06-04T23:04:12.882Z,2.53
2018-06-04T23:06:49.205Z,2.70
2018-06-04T23:09:25.209Z,2.77
2018-06-04T23:12:01.281Z,2.60
2018-06-04T23:14:37.210Z,2.77
2018-06-04T23:17:15.112Z,2.63
2018-06-04T23:19:51.406Z,2.40
2018-06-04T23:22:28.725Z,2.67
2018-06-04T23:25:05.210Z,2.80
2018-06-04T23:27:41.282Z,2.50
2018-06-04T23:30:17.826Z,3.17
2018-06-04T23:32:53.786Z,2.50
2018-06-04T23:35:30.281Z,2.80
2018-06-04T23:38:06.331Z,2.92
2018-06-04T23:40:44.423Z,2.87
2018-06-04T23:43:20.276Z,2.77
2018-06-04T23:45:56.210Z,2.50
2018-06-04T23:48:32.086Z,2.87
2018-06-04T23:51:08.266Z,2.80
2018-06-04T23:53:44.319Z,2.83
2018-06-04T23:56:20.514Z,2.62
2018-06-04T23:58:56.861Z,2.52
